Time;durP1;ratioP1;P1;durP2;ratioP2;P2;SDS_P1;SDS_P2;PMS_P1;PMS_P2;Temp;Humidity;BMP_temperature;BMP_pressure;BME280_temperature;BME280_humidity;BME280_pressure;Samples;Min_cycle;Max_cycle;Signal;HPM_P1;HPM_P2
2022/05/03 00:02:05;;;;;;;;;38.33;35.33;;;;;15.08;48.93;101021.41;4917079;28;45278;-85
2022/05/03 00:04:43;;;;;;;;;38.67;34.33;;;;;15.10;48.94;101026.78;4899862;29;44783;-85
2022/05/03 00:07:14;;;;;;;;;30.33;30.33;;;;;15.04;48.52;101024.09;4900450;29;45371;-85
2022/05/03 00:10:06;;;;;;;;;28.67;22.67;;;;;15.12;49.19;101033.03;4900719;29;45685;-84
2022/05/03 00:12:47;;;;;;;;;42.33;36.00;;;;;15.03;49.13;101024.97;4899135;29;47006;-86
2022/05/03 00:15:16;;;;;;;;;45.67;36.33;;;;;14.93;49.78;101022.31;4916179;28;45351;-86
2022/05/03 00:17:42;;;;;;;;;42.67;38.00;;;;;14.89;49.64;101027.69;4900877;29;45468;-84
2022/05/03 00:20:09;;;;;;;;;41.00;36.33;;;;;14.85;49.51;101026.78;4899800;29;45463;-85
2022/05/03 00:22:35;;;;;;;;;40.67;35.00;;;;;14.80;49.90;101023.19;4899811;28;46900;-84
2022/05/03 00:25:01;;;;;;;;;42.00;35.00;;;;;14.65;50.11;101007.13;4917234;28;45512;-85
2022/05/03 00:28:04;;;;;;;;;52.33;39.67;;;;;14.81;49.72;101019.63;4935344;28;45464;-84
2022/05/03 00:30:31;;;;;;;;;39.67;36.00;;;;;14.70;50.37;101010.69;4933502;28;45460;-86
2022/05/03 00:32:59;;;;;;;;;37.33;33.33;;;;;14.70;50.15;101013.34;4933648;28;45828;-85
2022/05/03 00:35:25;;;;;;;;;28.67;28.67;;;;;14.67;50.19;101013.38;4933343;28;46217;-84
2022/05/03 00:37:51;;;;;;;;;45.33;36.67;;;;;14.65;51.47;101012.47;4934406;28;46177;-84
2022/05/03 00:40:18;;;;;;;;;49.50;39.50;;;;;14.56;50.53;100999.94;4918373;28;45435;-83
2022/05/03 00:43:04;;;;;;;;;47.33;37.67;;;;;14.59;50.68;101014.25;4935190;28;47592;-85
2022/05/03 00:45:39;;;;;;;;;49.75;42.50;;;;;14.56;50.65;101003.53;4935565;28;45443;-85
2022/05/03 00:48:29;;;;;;;;;51.25;41.25;;;;;14.58;50.07;101007.13;4935905;28;45414;-84
2022/05/03 00:51:12;;;;;;;;;45.33;36.00;;;;;14.58;50.29;101007.13;4920195;28;45337;-84
2022/05/03 00:53:58;;;;;;;;;44.00;36.00;;;;;14.54;50.28;101005.28;4919120;28;48257;-85
2022/05/03 00:56:29;;;;;;;;;45.00;39.00;;;;;14.49;50.41;101006.16;4919426;28;45394;-85
2022/05/03 00:59:10;;;;;;;;;45.00;38.00;;;;;14.58;50.53;101007.13;4934892;28;44932;-84
2022/05/03 01:01:41;;;;;;;;;43.00;37.67;;;;;14.53;50.68;101003.50;4919595;28;46078;-84
2022/05/03 01:04:31;;;;;;;;;45.25;38.25;;;;;14.58;50.25;101007.13;4918686;28;47934;-84
2022/05/03 01:07:21;;;;;;;;;43.00;36.33;;;;;14.57;49.81;101004.44;4897324;29;45463;-85
2022/05/03 01:09:59;;;;;;;;;43.33;38.00;;;;;14.55;50.21;101007.06;4913261;28;45434;-84
2022/05/03 01:12:27;;;;;;;;;47.75;39.00;;;;;14.46;50.18;101011.50;4913916;28;44780;-85
2022/05/03 01:15:05;;;;;;;;;42.00;37.75;;;;;14.54;50.35;101004.38;4897782;29;47208;-85
2022/05/03 01:17:42;;;;;;;;;52.50;39.25;;;;;14.50;49.78;101003.50;4912662;28;45444;-84
2022/05/03 01:20:09;;;;;;;;;39.33;36.00;;;;;14.45;50.38;101010.59;4912292;28;45522;-85
2022/05/03 01:22:57;;;;;;;;;42.33;36.00;;;;;14.36;50.80;100999.88;4897164;29;45437;-85
2022/05/03 01:25:35;;;;;;;;;46.33;36.00;;;;;14.34;50.68;101002.56;4896266;28;45429;-85
2022/05/03 01:28:13;;;;;;;;;47.00;38.25;;;;;14.23;51.22;101003.41;4897600;28;45359;-84
2022/05/03 01:30:47;;;;;;;;;37.33;35.33;;;;;14.15;51.61;101001.59;4897547;28;45914;-86
2022/05/03 01:33:20;;;;;;;;;41.00;35.67;;;;;13.97;52.74;100985.47;4880867;29;45384;-84
2022/05/03 01:35:51;;;;;;;;;38.33;35.00;;;;;13.93;52.78;100995.25;4879495;29;47308;-85
2022/05/03 01:38:46;;;;;;;;;38.33;35.00;;;;;13.88;52.31;101004.19;4896989;28;45516;-86
2022/05/03 01:41:46;;;;;;;;;42.67;34.33;;;;;13.85;52.40;101001.47;4819422;29;45547;-85
2022/05/03 01:44:38;;;;;;;;;36.00;33.67;;;;;13.77;52.91;100999.63;4804304;29;45464;-84
2022/05/03 01:47:22;;;;;;;;;34.00;33.67;;;;;13.72;52.88;100997.84;4819468;29;47077;-84
2022/05/03 01:50:20;;;;;;;;;38.67;35.67;;;;;13.71;52.96;100999.59;4820507;29;44902;-86
2022/05/03 01:53:13;;;;;;;;;38.33;35.00;;;;;13.69;53.24;100990.69;4807143;29;44884;-84
2022/05/03 01:56:01;;;;;;;;;37.67;34.00;;;;;13.68;53.29;100988.91;4822551;29;44885;-85
2022/05/03 01:58:53;;;;;;;;;38.00;33.00;;;;;13.59;53.26;100970.16;4806396;29;47242;-84
2022/05/03 02:01:39;;;;;;;;;34.33;33.00;;;;;13.56;53.58;100978.16;4821691;29;46006;-85
2022/05/03 02:04:16;;;;;;;;;36.67;33.33;;;;;13.61;53.23;100981.75;4821356;29;45425;-85
2022/05/03 02:06:55;;;;;;;;;35.33;32.33;;;;;13.56;53.20;100979.06;4823371;29;45034;-84
2022/05/03 02:09:28;;;;;;;;;34.67;33.33;;;;;13.50;54.24;100988.81;4822649;29;45531;-84
2022/05/03 02:12:13;;;;;;;;;36.00;31.33;;;;;13.40;53.71;100988.75;4821384;29;45444;-84
2022/05/03 02:14:55;;;;;;;;;38.67;36.00;;;;;13.18;54.23;100968.09;4821753;29;45552;-85
2022/05/03 02:17:50;;;;;;;;;38.67;34.67;;;;;13.16;55.15;100989.44;4831947;29;45465;-84
2022/05/03 02:20:22;;;;;;;;;37.67;33.00;;;;;13.06;54.79;100989.38;4880276;29;46954;-85
2022/05/03 02:23:18;;;;;;;;;38.33;33.00;;;;;13.15;54.97;100990.34;4896025;28;44855;-86
2022/05/03 02:26:25;;;;;;;;;31.67;29.33;;;;;13.13;55.88;100993.88;4879104;28;44879;-85
2022/05/03 02:29:09;;;;;;;;;33.33;31.67;;;;;12.93;56.93;100981.25;4878621;29;45554;-85
2022/05/03 02:31:48;;;;;;;;;36.33;33.67;;;;;12.98;55.19;100992.84;4878780;29;46745;-84
2022/05/03 02:34:16;;;;;;;;;39.67;35.33;;;;;12.93;55.96;100997.28;4877715;29;45748;-85
2022/05/03 02:36:53;;;;;;;;;37.00;31.33;;;;;12.78;55.59;100987.34;4895457;28;45479;-84
2022/05/03 02:39:27;;;;;;;;;38.67;34.00;;;;;12.85;56.32;101011.44;4862191;29;45505;-84
2022/05/03 02:42:00;;;;;;;;;32.33;31.00;;;;;12.78;56.11;100998.00;4879966;29;47049;-84
2022/05/03 02:44:31;;;;;;;;;40.00;37.00;;;;;12.87;56.12;101007.91;4895855;29;46135;-85
2022/05/03 02:47:11;;;;;;;;;41.00;32.00;;;;;12.85;55.77;101007.00;4880361;29;45428;-84
2022/05/03 02:49:57;;;;;;;;;37.33;33.33;;;;;12.87;55.91;101001.69;4897262;29;45508;-84
2022/05/03 02:52:28;;;;;;;;;35.33;33.33;;;;;12.78;56.19;100990.00;4878695;29;48096;-85
2022/05/03 02:55:13;;;;;;;;;36.33;34.00;;;;;12.84;55.54;100990.97;4878001;29;45453;-85
2022/05/03 02:58:00;;;;;;;;;40.00;33.33;;;;;12.84;55.71;100997.19;4878463;29;45542;-83
2022/05/03 03:03:25;;;;;;;;;36.67;32.00;;;;;12.78;55.88;100991.78;4893651;28;45054;-85
2022/05/03 03:06:01;;;;;;;;;37.33;30.67;;;;;12.77;56.86;100992.69;4877240;29;44982;-86
2022/05/03 03:08:31;;;;;;;;;35.67;33.00;;;;;12.61;56.76;100979.19;4876468;29;45518;-85
2022/05/03 03:11:05;;;;;;;;;36.00;32.67;;;;;12.68;56.69;100989.91;4893460;28;45527;-85
2022/05/03 03:13:58;;;;;;;;;35.67;31.33;;;;;12.77;56.56;100998.03;4891936;29;45370;-85
2022/05/03 03:16:39;;;;;;;;;40.00;35.67;;;;;12.80;55.93;100998.03;4876116;29;45432;-85
2022/05/03 03:19:19;;;;;;;;;40.67;36.00;;;;;12.80;56.45;100988.28;4876624;29;45378;-84
2022/05/03 03:21:48;;;;;;;;;35.67;32.33;;;;;12.76;56.62;100983.75;4887601;29;45420;-84
2022/05/03 03:24:23;;;;;;;;;42.00;37.00;;;;;12.79;55.61;100980.25;4876125;29;47735;-85
2022/05/03 03:26:52;;;;;;;;;37.00;35.67;;;;;12.85;56.22;100982.97;4876538;29;45408;-86
2022/05/03 03:29:20;;;;;;;;;35.33;33.00;;;;;12.93;55.76;100980.38;4881444;29;45409;-85
2022/05/03 03:31:48;;;;;;;;;40.00;34.00;;;;;13.00;55.47;100993.75;4898874;29;44970;-85
2022/05/03 03:34:15;;;;;;;;;38.67;36.33;;;;;13.02;55.60;100992.00;4882363;29;47010;-84
2022/05/03 03:36:43;;;;;;;;;45.33;37.00;;;;;13.00;55.31;100988.41;4882659;29;45811;-86
2022/05/03 03:39:09;;;;;;;;;34.33;32.00;;;;;12.96;56.20;100991.94;4898642;29;45355;-85
2022/05/03 03:41:34;;;;;;;;;36.33;31.00;;;;;12.88;56.39;100984.75;4882269;29;45838;-85
2022/05/03 03:44:03;;;;;;;;;37.67;31.33;;;;;12.87;55.96;100981.22;4880559;29;48087;-85
2022/05/03 03:46:29;;;;;;;;;38.67;35.67;;;;;12.93;55.72;100981.25;4896439;29;44920;-85
2022/05/03 03:48:55;;;;;;;;;40.00;34.67;;;;;12.98;55.25;100981.28;4864276;29;45921;-84
2022/05/03 03:51:21;;;;;;;;;38.33;33.67;;;;;12.97;56.31;100976.84;4879728;29;45535;-85
2022/05/03 03:53:50;;;;;;;;;38.67;34.00;;;;;12.97;55.33;100971.50;4897538;29;45682;-84
2022/05/03 03:56:16;;;;;;;;;42.00;35.00;;;;;12.94;55.37;100972.34;4880414;29;45442;-84
2022/05/03 03:58:42;;;;;;;;;41.33;36.00;;;;;12.96;56.16;100981.28;4882601;29;45410;-85
2022/05/03 04:01:09;;;;;;;;;36.33;32.67;;;;;12.87;55.29;100969.66;4881737;29;45424;-85
2022/05/03 04:03:37;;;;;;;;;38.33;34.33;;;;;12.89;55.99;100984.78;4880934;29;47205;-84
2022/05/03 04:06:04;;;;;;;;;41.00;36.00;;;;;12.89;56.22;100982.13;4895684;29;45427;-85
2022/05/03 04:08:31;;;;;;;;;44.67;37.00;;;;;12.88;56.00;100982.97;4896513;29;44715;-85
2022/05/03 04:10:57;;;;;;;;;36.67;34.67;;;;;12.80;57.18;100990.03;4881638;29;45488;-84
2022/05/03 04:13:23;;;;;;;;;41.33;34.00;;;;;12.76;55.95;100983.75;4897185;29;45448;-84
2022/05/03 04:15:51;;;;;;;;;46.00;38.67;;;;;12.83;56.36;100989.19;4880618;29;45429;-84
2022/05/03 04:18:18;;;;;;;;;35.33;32.00;;;;;12.81;56.43;100983.81;4880319;29;45443;-84
2022/05/03 04:20:43;;;;;;;;;37.33;32.67;;;;;12.78;56.74;100995.34;4897878;29;45367;-85
2022/05/03 04:23:09;;;;;;;;;46.67;37.00;;;;;12.72;57.48;100984.63;4880099;29;48257;-84
2022/05/03 04:25:48;;;;;;;;;41.33;36.33;;;;;12.77;56.26;100980.22;4880996;29;45828;-84
2022/05/03 04:28:14;;;;;;;;;47.33;37.00;;;;;12.64;56.33;100967.66;4898299;29;44842;-83
2022/05/03 04:30:39;;;;;;;;;43.00;35.00;;;;;12.80;56.47;100990.94;4898205;29;46044;-85
2022/05/03 04:33:05;;;;;;;;;42.00;36.00;;;;;12.80;55.91;100976.69;4882264;29;47021;-85
2022/05/03 04:35:30;;;;;;;;;40.33;34.00;;;;;12.83;56.22;100989.19;4898909;29;44763;-85
2022/05/03 04:37:56;;;;;;;;;45.00;36.33;;;;;12.76;56.38;100982.88;4898347;29;44712;-84
2022/05/03 04:40:21;;;;;;;;;46.00;36.00;;;;;12.76;56.79;100996.22;4880687;29;45779;-84
2022/05/03 04:42:47;;;;;;;;;41.67;34.33;;;;;12.67;57.06;100993.50;4897835;29;45358;-85
2022/05/03 04:45:12;;;;;;;;;49.33;37.67;;;;;12.63;56.43;100991.66;4880148;29;45116;-84
2022/05/03 04:47:37;;;;;;;;;42.00;36.67;;;;;12.58;56.34;100988.94;4911590;28;44813;-85
2022/05/03 04:50:03;;;;;;;;;44.33;37.00;;;;;12.56;56.30;100996.94;4881377;29;45366;-84
2022/05/03 04:52:29;;;;;;;;;43.00;37.00;;;;;12.50;57.28;100983.56;4880950;29;46869;-84
2022/05/03 04:54:55;;;;;;;;;35.67;33.00;;;;;12.52;57.19;101002.22;4880740;29;45818;-84
2022/05/03 04:57:20;;;;;;;;;36.00;31.33;;;;;12.46;57.05;100989.69;4882044;29;44875;-86
2022/05/03 04:59:46;;;;;;;;;39.67;36.33;;;;;12.46;56.88;100994.16;4883373;29;45470;-84
2022/05/03 05:02:11;;;;;;;;;43.00;35.33;;;;;12.51;57.45;101000.44;4883691;29;46991;-85
2022/05/03 05:04:36;;;;;;;;;39.00;36.00;;;;;12.50;57.60;101001.31;4888249;29;44984;-85
2022/05/03 05:07:03;;;;;;;;;39.33;33.33;;;;;12.48;57.65;101005.72;4901759;28;45526;-87
2022/05/03 05:09:29;;;;;;;;;47.00;37.67;;;;;12.41;57.83;101002.09;4917963;28;45828;-84
2022/05/03 05:11:54;;;;;;;;;45.67;37.00;;;;;12.30;57.13;100986.00;4916084;28;46542;-85
2022/05/03 05:14:21;;;;;;;;;50.33;37.67;;;;;12.44;57.35;101004.78;4915396;28;45401;-84
2022/05/03 05:16:50;;;;;;;;;43.33;35.00;;;;;12.36;58.25;101009.16;4916563;28;45993;-85
2022/05/03 05:19:18;;;;;;;;;46.00;38.00;;;;;12.49;57.85;101021.75;4900293;29;45541;-85
2022/05/03 05:21:43;;;;;;;;;51.75;39.75;;;;;12.39;57.57;101012.75;4899386;29;47955;-85
2022/05/03 05:24:11;;;;;;;;;45.25;37.00;;;;;12.37;58.49;101022.50;4898701;28;45610;-85
2022/05/03 05:26:37;;;;;;;;;51.50;41.00;;;;;12.37;58.04;101029.63;4918026;28;45228;-85
2022/05/03 05:29:02;;;;;;;;;42.00;37.00;;;;;12.41;57.66;101029.66;4916118;29;44878;-84
2022/05/03 05:31:28;;;;;;;;;43.33;37.67;;;;;12.35;57.83;101018.94;4915535;28;45489;-85
2022/05/03 05:33:53;;;;;;;;;33.33;27.67;;;;;12.39;58.68;101025.22;4900068;28;45474;-85
2022/05/03 05:36:19;;;;;;;;;36.67;32.33;;;;;12.40;58.75;101025.22;4919548;28;45273;-85
2022/05/03 05:38:45;;;;;;;;;54.00;39.75;;;;;12.41;57.96;101024.34;4901303;28;44950;-83
2022/05/03 05:41:14;;;;;;;;;34.67;28.67;;;;;12.14;57.97;100979.59;4900520;28;45451;-85
2022/05/03 05:43:40;;;;;;;;;43.33;34.33;;;;;12.47;58.34;101034.19;4913754;28;45839;-85
2022/05/03 05:46:05;;;;;;;;;40.33;37.33;;;;;12.51;59.06;101032.44;4916030;28;45374;-84
2022/05/03 05:48:31;;;;;;;;;44.67;35.67;;;;;12.35;58.40;101002.94;4917495;28;45328;-84
2022/05/03 05:50:56;;;;;;;;;39.33;31.33;;;;;12.55;59.23;101032.50;4898385;28;46898;-85
2022/05/03 05:53:34;;;;;;;;;47.00;37.00;;;;;12.54;59.13;101041.41;4915328;28;45662;-85
2022/05/03 05:56:04;;;;;;;;;46.00;38.50;;;;;12.47;58.53;101002.19;4915680;28;45262;-86
2022/05/03 05:58:31;;;;;;;;;53.33;41.00;;;;;12.68;58.53;101032.63;4914824;28;45525;-85
2022/05/03 06:00:57;;;;;;;;;45.67;37.00;;;;;12.51;57.97;101001.31;4915003;28;45240;-84
2022/05/03 06:03:27;;;;;;;;;42.00;37.00;;;;;12.63;58.25;101023.69;4898575;29;45568;-85
2022/05/03 06:05:53;;;;;;;;;45.33;39.67;;;;;12.73;58.46;101038.91;4914232;28;45404;-86
2022/05/03 06:08:19;;;;;;;;;43.67;36.67;;;;;12.70;57.75;101030.84;4914688;29;45471;-86
2022/05/03 06:10:45;;;;;;;;;43.00;37.00;;;;;12.79;57.98;101054.97;4915573;28;48041;-85
2022/05/03 06:13:11;;;;;;;;;41.67;37.33;;;;;12.76;57.63;101033.59;4901311;28;45377;-85
2022/05/03 06:15:37;;;;;;;;;49.50;39.25;;;;;12.92;57.91;101042.63;4916532;28;45327;-84
2022/05/03 06:18:07;;;;;;;;;48.25;38.00;;;;;12.96;57.76;101048.00;4915679;28;44825;-83
2022/05/03 06:20:33;;;;;;;;;44.75;40.00;;;;;12.87;57.77;101028.38;4897140;28;46799;-84
2022/05/03 06:22:58;;;;;;;;;48.00;39.75;;;;;12.94;57.20;101047.09;4913247;28;45477;-84
2022/05/03 06:25:24;;;;;;;;;48.33;37.00;;;;;13.02;57.67;101044.50;4913791;28;45439;-84
2022/05/03 06:27:50;;;;;;;;;41.33;36.00;;;;;13.11;57.01;101055.28;4912235;28;44916;-83
2022/05/03 06:30:16;;;;;;;;;49.25;37.50;;;;;13.26;56.84;101049.16;4913573;29;45777;-85
2022/05/03 06:32:43;;;;;;;;;48.00;38.33;;;;;13.38;56.33;101043.94;4914066;28;45446;-85
2022/05/03 06:35:11;;;;;;;;;44.33;35.67;;;;;13.52;56.47;101054.75;4896250;28;45396;-84
2022/05/03 06:37:38;;;;;;;;;41.00;37.75;;;;;13.53;56.06;101053.88;4898233;28;45571;-85
2022/05/03 06:40:13;;;;;;;;;44.50;38.25;;;;;13.64;55.70;101039.69;4914462;29;47076;-85
2022/05/03 06:42:40;;;;;;;;;49.67;41.00;;;;;13.81;55.40;101046.00;4914192;29;45427;-84
2022/05/03 06:45:07;;;;;;;;;45.33;37.00;;;;;13.80;55.29;101037.09;4917740;28;45777;-83
2022/05/03 06:47:33;;;;;;;;;49.00;38.67;;;;;13.88;55.39;101039.81;4913550;29;45603;-83
2022/05/03 06:49:59;;;;;;;;;46.67;37.67;;;;;13.99;54.55;101030.06;4899634;29;45500;-84
2022/05/03 06:52:38;;;;;;;;;38.00;33.00;;;;;14.07;54.44;101013.16;4899233;29;45417;-83
2022/05/03 06:55:14;;;;;;;;;47.67;40.00;;;;;14.46;54.00;101051.63;4917144;29;45486;-84
2022/05/03 06:57:40;;;;;;;;;49.00;38.33;;;;;14.44;53.68;101048.06;5225396;23;45545;-84
2022/05/03 07:00:07;;;;;;;;;47.33;38.00;;;;;14.60;53.55;101065.97;4880269;29;47137;-85
2022/05/03 07:02:34;;;;;;;;;47.25;38.00;;;;;14.60;53.43;101053.50;4895168;29;45533;-83
2022/05/03 07:05:00;;;;;;;;;42.33;37.67;;;;;14.58;52.97;101030.28;4880143;29;45382;-83
2022/05/03 07:07:32;;;;;;;;;46.00;37.50;;;;;14.65;52.89;101024.06;4884054;29;45457;-86
2022/05/03 07:10:02;;;;;;;;;52.50;39.00;;;;;14.76;52.74;101040.13;4851714;29;45304;-83
2022/05/03 07:12:29;;;;;;;;;44.00;37.67;;;;;14.62;52.76;101042.78;4897616;29;45199;-85
2022/05/03 07:15:06;;;;;;;;;43.00;35.00;;;;;14.77;52.89;101055.34;4881508;29;45440;-84
2022/05/03 07:23:11;;;;;;;;;38.67;33.00;;;;;14.83;52.72;101023.22;4898330;29;45450;-85
2022/05/03 07:25:40;;;;;;;;;49.67;39.67;;;;;15.10;52.58;101042.84;4920780;28;45467;-86
2022/05/03 07:28:15;;;;;;;;;45.67;39.00;;;;;14.92;52.30;101011.59;4918919;29;45287;-85
2022/05/03 07:30:43;;;;;;;;;48.00;38.67;;;;;14.94;52.05;101009.81;4919331;28;45675;-86
2022/05/03 07:33:17;;;;;;;;;40.00;35.67;;;;;14.98;51.00;101004.44;4918223;28;44791;-84
2022/05/03 07:36:03;;;;;;;;;44.67;37.67;;;;;15.12;51.30;101033.91;4900030;28;44831;-83
2022/05/03 07:38:35;;;;;;;;;48.75;39.25;;;;;15.19;51.29;101048.22;4903267;29;44983;-84
2022/05/03 07:41:02;;;;;;;;;46.67;37.67;;;;;15.41;51.33;101057.13;4918854;28;45606;-85
2022/05/03 07:43:31;;;;;;;;;45.67;37.33;;;;;15.20;50.86;101023.22;4885651;29;44886;-84
2022/05/03 07:45:57;;;;;;;;;45.33;38.00;;;;;15.28;51.08;101033.94;4897599;29;44902;-84
2022/05/03 07:48:41;;;;;;;;;47.25;37.50;;;;;15.33;50.53;101040.16;4917964;28;45379;-83
2022/05/03 07:51:06;;;;;;;;;50.67;37.33;;;;;15.47;51.03;101080.34;4916515;29;46323;-84
2022/05/03 07:53:35;;;;;;;;;46.00;36.33;;;;;15.61;50.70;101073.19;4915507;28;45356;-83
2022/05/03 07:56:00;;;;;;;;;45.33;37.67;;;;;15.47;50.54;101053.56;4897406;29;45429;-83
2022/05/03 07:59:15;;;;;;;;;39.00;36.00;;;;;15.67;50.56;101074.97;4896270;28;44962;-84
2022/05/03 08:01:42;;;;;;;;;42.67;35.33;;;;;15.72;50.46;101071.44;4897866;28;47328;-84
2022/05/03 08:04:55;;;;;;;;;46.67;36.00;;;;;15.75;50.10;101046.41;4898727;29;45352;-86
2022/05/03 08:07:46;;;;;;;;;41.00;36.67;;;;;15.93;49.91;101054.38;4895838;29;44784;-85
2022/05/03 08:10:25;;;;;;;;;40.00;34.75;;;;;15.98;49.47;101054.41;4903676;29;45123;-83
2022/05/03 08:13:03;;;;;;;;;36.00;33.00;;;;;15.92;49.49;101041.00;4896980;29;45747;-82
2022/05/03 08:15:35;;;;;;;;;36.67;34.00;;;;;16.13;49.35;101050.75;4900087;29;45477;-83
2022/05/03 08:18:24;;;;;;;;;33.00;30.00;;;;;16.37;49.16;101081.97;4890404;29;46640;-83
2022/05/03 08:20:58;;;;;;;;;48.00;38.67;;;;;16.37;48.99;101074.81;4894682;29;45574;-84
2022/05/03 08:23:46;;;;;;;;;48.00;37.33;;;;;16.35;48.37;101051.56;4904693;29;47060;-84
2022/05/03 08:26:17;;;;;;;;;45.00;38.67;;;;;16.26;48.24;101032.78;4901616;29;45958;-82
2022/05/03 08:29:18;;;;;;;;;41.67;35.00;;;;;16.64;48.31;101058.56;4902017;29;44892;-82
2022/05/03 08:44:42;;;;;;;;;35.67;33.00;;;;;16.54;46.86;101034.47;4790342;29;45624;-83
2022/05/03 08:47:31;;;;;;;;;36.00;33.00;;;;;16.47;47.01;101016.59;4821448;29;45772;-83
2022/05/03 09:00:43;;;;;;;;;;;;;;;;;;;;;
2022/05/03 09:03:37;;;;;;;;;36.67;32.00;;;;;17.07;45.43;101071.75;4663575;30;72073;-84
2022/05/03 09:06:11;;;;;;;;;36.00;31.33;;;;;17.05;44.61;101043.97;4695620;30;44916;-85
2022/05/03 09:08:39;;;;;;;;;28.67;28.67;;;;;17.25;45.01;101057.25;4697177;30;44827;-83
2022/05/03 09:11:28;;;;;;;;;;;;;;;;;;;;;
2022/05/03 09:14:04;;;;;;;;;38.00;33.00;;;;;17.59;44.20;101074.91;4719886;29;71960;-83
2022/05/03 09:16:52;;;;;;;;;26.00;20.67;;;;;17.56;44.43;101036.38;4732624;29;44887;-84
2022/05/03 09:19:30;;;;;;;;;32.33;31.67;;;;;17.65;44.40;101040.75;4732296;30;45462;-84
2022/05/03 09:25:03;;;;;;;;;;;;;;;;;;;;;
2022/05/03 09:28:02;;;;;;;;;30.33;29.00;;;;;17.64;42.16;101018.34;4730910;30;69674;-85
2022/05/03 09:30:56;;;;;;;;;30.33;28.67;;;;;18.03;42.47;101066.41;4731035;30;45505;-84
2022/05/03 09:33:23;;;;;;;;;28.33;25.00;;;;;18.01;43.15;101039.50;4729028;30;47714;-81
2022/05/03 09:35:55;;;;;;;;;33.67;30.00;;;;;18.24;42.72;101038.31;4735135;29;44967;-82
2022/05/03 09:39:04;;;;;;;;;34.00;31.67;;;;;18.56;42.09;101072.91;4801461;29;45458;-82
2022/05/03 09:41:30;;;;;;;;;36.00;30.00;;;;;18.40;42.68;101034.53;4803784;29;44985;-82
2022/05/03 09:44:01;;;;;;;;;30.33;29.00;;;;;18.58;42.56;101026.19;4855046;29;47002;-82
2022/05/03 09:46:28;;;;;;;;;36.00;30.00;;;;;18.76;42.08;101048.38;4897769;29;45428;-81
2022/05/03 09:48:56;;;;;;;;;27.00;26.67;;;;;18.81;41.09;101068.09;4884750;29;44869;-82
2022/05/03 09:51:23;;;;;;;;;29.67;25.67;;;;;18.61;41.48;101036.03;4880209;29;45495;-83
2022/05/03 09:54:05;;;;;;;;;31.00;28.33;;;;;18.72;41.56;101044.84;4897519;29;45342;-82
2022/05/03 09:56:42;;;;;;;;;19.67;18.33;;;;;18.82;41.48;101044.72;4888897;29;45420;-82
2022/05/03 09:59:17;;;;;;;;;31.67;30.33;;;;;18.93;41.16;101065.22;4863154;29;45478;-84
2022/05/03 10:05:06;;;;;;;;;26.33;24.67;;;;;18.74;40.75;101028.63;4879675;29;46078;-82
2022/05/03 10:07:35;;;;;;;;;31.67;29.33;;;;;18.70;41.45;101019.72;4866382;29;45267;-82
2022/05/03 10:10:06;;;;;;;;;32.67;31.00;;;;;18.78;41.69;101027.69;4895423;29;45193;-84
2022/05/03 10:12:32;;;;;;;;;30.33;24.33;;;;;18.96;40.81;101053.50;4879725;29;44941;-81
2022/05/03 10:21:33;;;;;;;;;28.33;27.00;;;;;18.74;41.28;101048.41;4874006;29;45450;-84
2022/05/03 10:24:02;;;;;;;;;26.33;24.33;;;;;18.84;40.94;101049.19;4850546;29;45308;-84
2022/05/03 10:26:55;;;;;;;;;31.00;26.67;;;;;18.95;40.96;101063.38;4895438;29;47242;-85
2022/05/03 10:29:25;;;;;;;;;28.67;27.33;;;;;18.98;40.88;101046.28;4887256;29;44838;-84
2022/05/03 10:32:04;;;;;;;;;31.67;26.67;;;;;19.01;40.57;101046.25;4865604;29;45427;-84
2022/05/03 10:35:31;;;;;;;;;;;;;;;;;;;;;
2022/05/03 10:38:57;;;;;;;;;24.33;24.33;;;;;19.08;39.37;101049.72;4796296;29;45495;-84
2022/05/03 10:42:09;;;;;;;;;24.33;21.00;;;;;19.08;39.78;101042.50;4766407;29;45550;-84
2022/05/03 10:44:46;;;;;;;;;23.00;23.00;;;;;19.01;39.62;101053.41;4766601;29;45664;-83
2022/05/03 10:47:47;;;;;;;;;26.00;23.67;;;;;18.83;39.92;101014.19;4749458;29;45447;-84
2022/05/03 10:50:17;;;;;;;;;23.67;21.67;;;;;19.08;40.03;101038.94;4742021;30;46219;-81
2022/05/03 10:53:07;;;;;;;;;22.67;20.67;;;;;19.30;38.95;101039.47;4747200;30;45535;-82
2022/05/03 10:56:07;;;;;;;;;21.67;18.33;;;;;19.19;39.30;101012.69;4745198;29;44806;-82
2022/05/03 11:02:04;;;;;;;;;25.33;23.67;;;;;19.47;38.34;101034.69;4770394;29;45522;-84
2022/05/03 11:04:58;;;;;;;;;21.33;19.67;;;;;19.42;38.75;101035.66;4771078;29;45577;-86
2022/05/03 11:07:46;;;;;;;;;;;;;;;;;;;;;
2022/05/03 11:10:59;;;;;;;;;21.33;19.00;;;;;19.53;38.69;101030.94;4769036;29;65420;-84
2022/05/03 11:35:57;;;;;;;;;16.33;12.67;;;;;20.16;35.73;101018.97;4885788;29;45006;-85
2022/05/03 11:38:56;;;;;;;;;14.33;13.33;;;;;20.32;35.89;101019.50;4841239;29;45504;-84
2022/05/03 11:41:39;;;;;;;;;14.33;13.00;;;;;20.08;34.92;100959.72;4861016;29;44836;-85
2022/05/03 11:44:10;;;;;;;;;14.67;13.00;;;;;20.30;34.89;101019.56;4866418;29;45343;-84
2022/05/03 11:49:58;;;;;;;;;15.00;13.00;;;;;20.29;34.94;100981.78;4879799;29;45403;-85
2022/05/03 11:57:57;;;;;;;;;17.33;13.00;;;;;20.25;34.57;100990.88;4898467;29;44986;-84
2022/05/03 12:00:25;;;;;;;;;11.00;9.67;;;;;20.11;34.23;100969.56;4896895;29;45315;-86
2022/05/03 12:03:03;;;;;;;;;9.67;8.33;;;;;20.22;34.53;100989.13;4899078;29;44730;-84
2022/05/03 12:05:40;;;;;;;;;16.67;14.67;;;;;20.12;34.35;100952.44;4882542;29;44751;-86
2022/05/03 12:08:23;;;;;;;;;12.00;12.00;;;;;20.26;34.18;100965.63;4883099;29;46688;-84
2022/05/03 12:14:42;;;;;;;;;10.67;10.67;;;;;20.44;33.35;100989.53;4841577;29;45420;-84
2022/05/03 12:17:08;;;;;;;;;12.33;12.33;;;;;20.20;34.51;100945.06;4857290;29;45321;-85
2022/05/03 12:19:35;;;;;;;;;12.33;11.33;;;;;20.47;33.69;100970.53;4889267;29;47124;-85
2022/05/03 12:22:31;;;;;;;;;10.00;10.00;;;;;20.56;34.28;100970.34;4884640;29;44833;-86
2022/05/03 12:25:15;;;;;;;;;11.67;11.67;;;;;20.53;33.47;100937.09;4885822;29;45427;-85
2022/05/03 12:28:08;;;;;;;;;13.67;12.67;;;;;20.72;33.13;100972.69;4913736;29;44810;-84
2022/05/03 12:31:08;;;;;;;;;13.00;10.67;;;;;20.52;33.65;100928.13;4863602;29;45414;-88
2022/05/03 12:33:39;;;;;;;;;10.33;10.33;;;;;20.61;33.99;100927.03;4840813;29;45785;-85
2022/05/03 12:36:13;;;;;;;;;10.33;10.00;;;;;20.96;33.66;100949.56;4857401;29;45473;-86
2022/05/03 12:38:55;;;;;;;;;10.67;10.00;;;;;20.92;32.44;100929.81;4856068;29;45541;-87
2022/05/03 12:44:53;;;;;;;;;13.00;12.00;;;;;21.04;32.44;100928.63;4802409;29;45953;-86
2022/05/03 12:47:19;;;;;;;;;13.67;13.00;;;;;20.82;32.02;100901.25;4863794;29;44784;-78
2022/05/03 12:49:48;;;;;;;;;14.33;12.33;;;;;20.96;31.96;100945.03;4873975;29;45358;-77
2022/05/03 12:52:14;;;;;;;;;10.00;9.00;;;;;20.87;33.54;100934.47;4841894;29;46365;-78
2022/05/03 12:54:44;;;;;;;;;12.33;11.67;;;;;20.93;33.25;100931.63;4892071;29;45537;-78
2022/05/03 13:00:03;;;;;;;;;9.33;9.00;;;;;21.04;34.41;100930.44;4872465;29;45505;-77
2022/05/03 13:02:33;;;;;;;;;5.00;5.00;;;;;21.13;34.14;100920.28;4873505;29;45494;-78
2022/05/03 13:04:59;;;;;;;;;12.00;12.00;;;;;21.16;33.27;100906.66;4864006;29;45620;-77
2022/05/03 13:07:24;;;;;;;;;10.00;10.00;;;;;21.20;33.05;100918.28;4871030;29;45539;-80
2022/05/03 13:09:50;;;;;;;;;12.67;12.67;;;;;21.24;33.50;100917.28;4863852;29;45542;-81
2022/05/03 13:12:15;;;;;;;;;11.00;11.00;;;;;21.26;33.94;100901.88;4859564;29;45531;-78
2022/05/03 13:14:42;;;;;;;;;9.00;8.00;;;;;21.43;32.96;100916.78;4855502;29;45817;-81
2022/05/03 13:17:08;;;;;;;;;13.00;13.00;;;;;21.52;33.42;100911.13;4862837;29;45527;-82
2022/05/03 13:19:33;;;;;;;;;12.67;12.67;;;;;21.55;32.97;100897.50;4854654;29;44949;-79
2022/05/03 13:22:00;;;;;;;;;11.00;11.00;;;;;21.74;33.46;100898.75;4862610;29;45745;-80